No particular awareness of the weather is required.    There are no Weather-warnings


Meteo18 Weather Cam more information Meteo18 Weather Cam


Thunder radar more information blitzortung!


Rain radar more information rain snow radar


Visit our other weather sites:

Template documentation
and downloads

And another site



Weather Underground History page Text

Daily Summary for July 19, 2017 Units:  English    Metric   Both
« Previous Day
Next Day »
Daily Weekly Monthly Yearly Custom
  High: Low: Average:
Temperature: TemperatureC °F 19.6 °F 24.2 °F
Dew Point: DewpointC °F 13.4 °F 15.9 °F
Humidity: Humidity % 41 % 61 %
Wind Speed: WindSpeedKMH mph 0.0 mph 5.3 mph
Wind Gust: WindSpeedGustKMH mph - -
Wind:- - SW
Pressure: PressurehPa in 1011.1 in -
Precipitation: 0.3 in    
Historical Graphs
 
 
Tabular Data for July 19, 2017
Time Temperature Dew Point Pressure Wind Wind Speed Wind Gust Humidity Rainfall Rate (Hourly)
TemperatureC °F DewpointC °F PressurehPa in Calm     Humidity % HourlyPrecipMM in
00:02 24.3 °F 15.5 °F 1011.1 in SSW 1.6 mph 3.2 mph 58 % 0.0 in
00:12 24.1 °F 15.6 °F 1011.1 in SW 1.6 mph 3.2 mph 59 % 0.0 in
00:17 24.1 °F 15.6 °F 1011.1 in SSW 1.6 mph 3.2 mph 59 % 0.0 in
00:22 24.1 °F 15.3 °F 1011.4 in Calm   3.2 mph 58 % 0.0 in
00:27 23.9 °F 15.7 °F 1011.4 in Calm   3.2 mph 60 % 0.0 in
00:32 23.7 °F 15.5 °F 1011.1 in Calm   3.2 mph 60 % 0.0 in
00:42 23.7 °F 15.5 °F 1011.1 in Calm   3.2 mph 60 % 0.0 in
00:47 23.7 °F 15.5 °F 1011.1 in Calm   1.6 mph 60 % 0.0 in
00:52 23.6 °F 15.6 °F 1011.4 in Calm   1.6 mph 61 % 0.0 in
00:57 23.2 °F 15.5 °F 1011.4 in Calm   1.6 mph 62 % 0.0 in
01:02 22.9 °F 15.5 °F 1011.1 in Calm   1.6 mph 63 % 0.0 in
01:07 23.1 °F 15.7 °F 1011.1 in Calm     63 % 0.0 in
01:12 23.0 °F 15.6 °F 1011.4 in Calm   1.6 mph 63 % 0.0 in
01:17 22.8 °F 15.9 °F 1011.4 in Calm   1.6 mph 65 % 0.0 in
01:22 22.3 °F 15.6 °F 1012.1 in WSW 4.8 mph 4.8 mph 66 % 0.0 in
01:27 22.8 °F 16.1 °F 1012.1 in SW 11.3 mph 11.3 mph 66 % 0.0 in
01:32 23.7 °F 16.2 °F 1012.1 in SW 6.4 mph 9.7 mph 63 % 0.0 in
01:37 24.2 °F 16.2 °F 1012.1 in WSW 6.4 mph 11.3 mph 61 % 0.0 in
01:42 24.5 °F 16.2 °F 1012.1 in SW 6.4 mph 11.3 mph 60 % 0.0 in
01:47 24.4 °F 16.1 °F 1012.1 in SSW 6.4 mph 11.3 mph 60 % 0.0 in
01:52 24.3 °F 16.3 °F 1012.1 in SW 4.8 mph 11.3 mph 61 % 0.0 in
01:57 24.3 °F 16.0 °F 1012.1 in SSW 6.4 mph 16.1 mph 60 % 0.0 in
02:02 24.0 °F 16.3 °F 1012.1 in South 1.6 mph 16.1 mph 62 % 0.0 in
02:12 23.4 °F 16.2 °F 1012.1 in SE 1.6 mph 8.0 mph 64 % 0.0 in
02:17 23.2 °F 16.3 °F 1012.1 in Calm   4.8 mph 65 % 0.0 in
02:22 22.9 °F 16.0 °F 1012.1 in ESE 1.6 mph 4.8 mph 65 % 0.0 in
02:27 22.8 °F 15.9 °F 1012.1 in Calm   4.8 mph 65 % 0.0 in
02:32 22.7 °F 15.8 °F 1012.1 in South 3.2 mph 4.8 mph 65 % 0.0 in
02:37 22.9 °F 15.7 °F 1012.1 in Calm   6.4 mph 64 % 0.0 in
02:42 22.9 °F 15.7 °F 1012.1 in SSE 1.6 mph 6.4 mph 64 % 0.0 in
02:47 22.8 °F 15.6 °F 1012.1 in Calm   6.4 mph 64 % 0.0 in
02:52 22.6 °F 15.4 °F 1012.4 in SSW 1.6 mph 6.4 mph 64 % 0.0 in
02:57 22.6 °F 15.4 °F 1012.1 in South 6.4 mph 6.4 mph 64 % 0.0 in
03:02 22.6 °F 15.2 °F 1012.1 in SSW 4.8 mph 6.4 mph 63 % 0.0 in
03:12 22.1 °F 15.0 °F 1012.1 in SSW 3.2 mph 8.0 mph 64 % 0.0 in
03:17 21.9 °F 15.0 °F 1012.4 in SSW 1.6 mph 8.0 mph 65 % 0.0 in
03:22 21.7 °F 15.1 °F 1012.4 in South 3.2 mph 6.4 mph 66 % 0.0 in
03:27 21.6 °F 15.0 °F 1012.4 in South 3.2 mph 6.4 mph 66 % 0.0 in
03:32 21.6 °F 14.7 °F 1012.4 in SSW 1.6 mph 6.4 mph 65 % 0.0 in
03:37 21.4 °F 14.8 °F 1012.4 in SW 3.2 mph 4.8 mph 66 % 0.0 in
03:42 21.4 °F 14.5 °F 1012.4 in SW 4.8 mph 4.8 mph 65 % 0.0 in
03:47 21.5 °F 14.6 °F 1012.1 in SSW 1.6 mph 6.4 mph 65 % 0.0 in
03:52 21.6 °F 14.5 °F 1012.1 in SSW 1.6 mph 6.4 mph 64 % 0.0 in
03:57 21.7 °F 14.6 °F 1012.1 in SSE 1.6 mph 6.4 mph 64 % 0.0 in
04:02 21.5 °F 14.6 °F 1012.1 in SSW 1.6 mph 6.4 mph 65 % 0.0 in
04:07 21.4 °F 14.5 °F 1012.1 in Calm   3.2 mph 65 % 0.0 in
04:12 21.4 °F 14.5 °F 1011.7 in SSW 1.6 mph 3.2 mph 65 % 0.0 in
04:17 21.4 °F 14.5 °F 1011.7 in Calm   3.2 mph 65 % 0.0 in
04:22 21.4 °F 14.5 °F 1011.7 in Calm   3.2 mph 65 % 0.0 in
04:27 21.3 °F 14.5 °F 1011.7 in Calm   3.2 mph 65 % 0.0 in
04:32 21.3 °F 14.5 °F 1011.7 in Calm   3.2 mph 65 % 0.0 in
04:37 21.2 °F 14.4 °F 1011.7 in Calm   3.2 mph 65 % 0.0 in
04:42 21.2 °F 14.6 °F 1012.1 in Calm   3.2 mph 66 % 0.0 in
04:47 21.2 °F 14.4 °F 1011.7 in SE 1.6 mph   65 % 0.0 in
04:52 21.1 °F 14.3 °F 1012.1 in Calm     65 % 0.0 in
05:02 20.8 °F 14.2 °F 1012.1 in Calm   3.2 mph 66 % 0.0 in
05:12 20.7 °F 14.4 °F 1012.1 in Calm   3.2 mph 67 % 0.0 in
05:17 20.6 °F 14.3 °F 1011.7 in Calm     67 % 0.0 in
05:22 20.5 °F 14.2 °F 1011.7 in Calm     67 % 0.0 in
05:32 20.3 °F 14.2 °F 1011.7 in Calm     68 % 0.0 in
05:37 20.2 °F 14.3 °F 1011.7 in Calm     69 % 0.0 in
05:42 20.1 °F 14.2 °F 1012.1 in Calm     69 % 0.0 in
05:52 19.6 °F 14.4 °F 1012.4 in SSW 3.2 mph   72 % 0.0 in
05:57 19.7 °F 14.1 °F 1012.4 in SW 4.8 mph 4.8 mph 70 % 0.0 in
06:02 20.0 °F 14.1 °F 1012.4 in SSW 3.2 mph 4.8 mph 69 % 0.0 in
06:12 20.4 °F 14.3 °F 1012.4 in SSW 4.8 mph 8.0 mph 68 % 0.0 in
06:17 20.3 °F 14.2 °F 1012.1 in Calm   9.7 mph 68 % 0.0 in
06:22 20.4 °F 14.3 °F 1012.1 in Calm   9.7 mph 68 % 0.0 in
06:27 20.3 °F 14.4 °F 1012.4 in South 1.6 mph 9.7 mph 69 % 0.0 in
06:32 20.3 °F 14.4 °F 1012.4 in SSW 1.6 mph 9.7 mph 69 % 0.0 in
06:37 20.3 °F 14.4 °F 1012.4 in Calm   6.4 mph 69 % 0.0 in
06:42 20.3 °F 14.4 °F 1012.8 in WSW 1.6 mph 6.4 mph 69 % 0.0 in
06:52 20.5 °F 14.2 °F 1012.4 in SSE 3.2 mph 11.3 mph 67 % 0.0 in
06:57 20.5 °F 14.2 °F 1012.1 in ESE 1.6 mph 11.3 mph 67 % 0.0 in
07:02 20.5 °F 14.2 °F 1012.1 in ESE 4.8 mph 11.3 mph 67 % 0.0 in
07:12 20.7 °F 14.1 °F 1012.1 in SSE 3.2 mph 9.7 mph 66 % 0.0 in
07:17 20.8 °F 14.0 °F 1012.1 in South 1.6 mph 9.7 mph 65 % 0.0 in
07:22 20.9 °F 13.8 °F 1011.7 in Calm   9.7 mph 64 % 0.0 in
07:32 21.2 °F 13.9 °F 1012.1 in SSW 3.2 mph 8.0 mph 63 % 0.0 in
07:42 21.5 °F 13.9 °F 1012.1 in WSW 1.6 mph 11.3 mph 62 % 0.0 in
07:47 21.7 °F 13.8 °F 1012.1 in SW 8.0 mph 11.3 mph 61 % 0.0 in
07:52 21.8 °F 13.4 °F 1012.1 in SW 8.0 mph 11.3 mph 59 % 0.0 in
07:57 21.8 °F 13.9 °F 1012.1 in SW 6.4 mph 12.9 mph 61 % 0.0 in
08:02 21.7 °F 13.8 °F 1012.1 in SSE 3.2 mph 12.9 mph 61 % 0.0 in
08:12 21.8 °F 14.2 °F 1012.4 in SSW 3.2 mph 12.9 mph 62 % 0.0 in
08:22 22.2 °F 14.1 °F 1012.4 in SSW 3.2 mph 9.7 mph 60 % 0.0 in
08:32 23.1 °F 14.6 °F 1012.1 in Calm   9.7 mph 59 % 0.0 in
08:37 23.7 °F 14.4 °F 1012.1 in Calm   4.8 mph 56 % 0.0 in
08:42 23.9 °F 14.3 °F 1012.1 in Calm   4.8 mph 55 % 0.0 in
08:52 24.3 °F 14.4 °F 1011.7 in Calm   3.2 mph 54 % 0.0 in
09:02 24.6 °F 14.1 °F 1011.7 in Calm   6.4 mph 52 % 0.0 in
09:12 25.4 °F 14.5 °F 1011.7 in SSW 3.2 mph 8.0 mph 51 % 0.0 in
09:17 25.4 °F 14.8 °F 1012.1 in ESE 3.2 mph 8.0 mph 52 % 0.0 in
09:22 25.6 °F 14.7 °F 1011.7 in SE 4.8 mph 8.0 mph 51 % 0.0 in
09:27 26.0 °F 14.8 °F 1012.1 in SSW 1.6 mph 9.7 mph 50 % 0.0 in
09:32 26.2 °F 14.6 °F 1012.1 in South 3.2 mph 9.7 mph 49 % 0.0 in
09:42 26.3 °F 15.0 °F 1012.1 in SSE 9.7 mph 9.7 mph 50 % 0.0 in
09:47 26.8 °F 14.5 °F 1012.1 in East 4.8 mph 11.3 mph 47 % 0.0 in
09:52 27.4 °F 14.4 °F 1012.1 in SW 6.4 mph 11.3 mph 45 % 0.0 in
09:57 27.6 °F 14.6 °F 1012.1 in SW 11.3 mph 16.1 mph 45 % 0.0 in
10:02 27.6 °F 13.5 °F 1012.4 in South 6.4 mph 16.1 mph 42 % 0.0 in
10:12 27.6 °F 14.2 °F 1012.4 in South 4.8 mph 17.7 mph 44 % 0.0 in
10:17 27.6 °F 14.2 °F 1012.4 in SSE 11.3 mph 20.9 mph 44 % 0.0 in
10:22 27.8 °F 13.7 °F 1012.4 in SSW 24.1 mph 24.1 mph 42 % 0.0 in
10:32 28.1 °F 13.6 °F 1012.1 in South 11.3 mph 25.7 mph 41 % 0.0 in
10:37 28.2 °F 13.7 °F 1012.1 in SW 24.1 mph 25.7 mph 41 % 0.0 in
10:42 28.0 °F 13.5 °F 1012.4 in SSW 16.1 mph 25.7 mph 41 % 0.0 in
10:47 28.1 °F 14.3 °F 1012.4 in SW 17.7 mph 29.0 mph 43 % 0.0 in
10:52 27.7 °F 13.6 °F 1012.1 in SSW 12.9 mph 29.0 mph 42 % 0.0 in
10:57 27.5 °F 13.8 °F 1012.4 in SSW 12.9 mph 33.8 mph 43 % 0.0 in
11:02 27.4 °F 13.7 °F 1012.4 in West 9.7 mph 33.8 mph 43 % 0.0 in
11:07 27.6 °F 14.2 °F 1012.4 in WSW 17.7 mph 33.8 mph 44 % 0.0 in
11:17 27.1 °F 14.1 °F 1012.4 in SW 16.1 mph 29.0 mph 45 % 0.0 in
11:22 26.8 °F 14.2 °F 1012.8 in WSW 9.7 mph 29.0 mph 46 % 0.0 in
11:27 26.9 °F 14.3 °F 1012.8 in SW 6.4 mph 29.0 mph 46 % 0.0 in
11:32 27.2 °F 14.2 °F 1012.8 in SW 24.1 mph 29.0 mph 45 % 0.0 in
11:37 27.3 °F 14.7 °F 1012.8 in SSE 8.0 mph 25.7 mph 46 % 0.0 in
11:42 27.1 °F 13.8 °F 1012.8 in WSW 14.5 mph 25.7 mph 44 % 0.0 in
11:47 26.7 °F 14.1 °F 1012.8 in SW 8.0 mph 32.2 mph 46 % 0.0 in
11:52 26.3 °F 14.4 °F 1013.1 in SW 20.9 mph 32.2 mph 48 % 0.0 in
11:57 25.7 °F 15.1 °F 1013.1 in West 9.7 mph 30.6 mph 52 % 0.0 in
12:02 25.2 °F 15.2 °F 1013.1 in SW 12.9 mph 30.6 mph 54 % 0.0 in
12:12 24.9 °F 15.5 °F 1013.1 in SW 6.4 mph 22.5 mph 56 % 0.0 in
12:17 24.8 °F 15.4 °F 1013.1 in West 12.9 mph 19.3 mph 56 % 0.0 in
12:27 24.4 °F 16.1 °F 1013.1 in WNW 6.4 mph 19.3 mph 60 % 0.0 in
12:32 24.3 °F 16.8 °F 1013.1 in Calm   19.3 mph 63 % 0.0 in
12:37 24.4 °F 16.9 °F 1013.1 in NNW 1.6 mph 14.5 mph 63 % 0.0 in
12:42 24.6 °F 17.3 °F 1012.8 in NNW 4.8 mph 14.5 mph 64 % 0.0 in
12:47 24.7 °F 16.9 °F 1012.8 in NNW 4.8 mph 8.0 mph 62 % 0.0 in
12:52 24.9 °F 16.9 °F 1012.8 in WNW 4.8 mph 8.0 mph 61 % 0.0 in
13:02 25.3 °F 17.0 °F 1013.1 in Calm   6.4 mph 60 % 0.0 in
13:07 25.5 °F 16.6 °F 1013.1 in West 3.2 mph 8.0 mph 58 % 0.0 in
13:12 25.7 °F 17.1 °F 1012.8 in Calm   8.0 mph 59 % 0.0 in
13:17 26.2 °F 16.7 °F 1012.8 in WSW 3.2 mph 8.0 mph 56 % 0.0 in
13:22 26.4 °F 16.3 °F 1012.8 in SW 3.2 mph 8.0 mph 54 % 0.0 in
13:32 26.4 °F 16.0 °F 1012.8 in West 3.2 mph 8.0 mph 53 % 0.0 in
13:37 26.5 °F 16.4 °F 1012.8 in SSW 4.8 mph 8.0 mph 54 % 0.0 in
13:42 26.6 °F 16.2 °F 1012.8 in SW 8.0 mph 9.7 mph 53 % 0.0 in
13:47 26.7 °F 16.3 °F 1012.8 in West 6.4 mph 9.7 mph 53 % 0.0 in
13:52 27.2 °F 16.8 °F 1012.8 in SW 1.6 mph 9.7 mph 53 % 0.0 in
13:57 27.4 °F 16.4 °F 1012.4 in WSW 3.2 mph 8.0 mph 51 % 0.0 in
14:02 27.6 °F 16.2 °F 1012.4 in SSW 1.6 mph 8.0 mph 50 % 0.0 in
14:12 28.3 °F 16.2 °F 1012.4 in SW 1.6 mph 9.7 mph 48 % 0.0 in
14:17 28.5 °F 16.4 °F 1012.1 in Calm   3.2 mph 48 % 0.0 in
14:22 28.9 °F 16.5 °F 1012.1 in Calm   3.2 mph 47 % 0.0 in
14:27 28.8 °F 16.7 °F 1012.4 in Calm   3.2 mph 48 % 0.0 in
14:32 28.5 °F 16.7 °F 1012.1 in SW 3.2 mph 3.2 mph 49 % 0.0 in
14:37 28.5 °F 17.1 °F 1012.1 in WSW 1.6 mph 3.2 mph 50 % 0.0 in
14:42 28.5 °F 16.4 °F 1012.1 in West 3.2 mph 6.4 mph 48 % 0.0 in
14:47 28.8 °F 16.7 °F 1012.1 in Calm   6.4 mph 48 % 0.0 in
14:52 28.9 °F 16.5 °F 1011.7 in SE 4.8 mph 6.4 mph 47 % 0.0 in
14:57 29.2 °F 16.4 °F 1011.7 in SSE 3.2 mph 6.4 mph 46 % 0.0 in
15:02 29.4 °F 15.9 °F 1011.7 in SW 3.2 mph 6.4 mph 44 % 0.0 in
15:07 29.6 °F 16.4 °F 1011.7 in WSW 3.2 mph 6.4 mph 45 % 0.0 in
15:12 29.8 °F 16.2 °F 1011.7 in SSW 3.2 mph 12.9 mph 44 % 0.0 in
15:17 29.8 °F 15.5 °F 1011.7 in SW 9.7 mph 19.3 mph 42 % 0.0 in
15:22 29.6 °F 15.3 °F 1011.7 in SW 9.7 mph 22.5 mph 42 % 0.0 in
15:32 29.8 °F 15.1 °F 1011.7 in West 14.5 mph 22.5 mph 41 % 0.0 in
15:42 29.7 °F 15.4 °F 1011.7 in SW 8.0 mph 17.7 mph 42 % 0.0 in
15:47 29.9 °F 15.6 °F 1011.7 in SW 6.4 mph 17.7 mph 42 % 0.0 in
15:52 30.2 °F 15.9 °F 1011.7 in WSW 8.0 mph 17.7 mph 42 % 0.0 in
16:02 30.3 °F 16.0 °F 1011.7 in SSW 11.3 mph 17.7 mph 42 % 0.0 in
16:07 30.2 °F 16.2 °F 1011.4 in SW 20.9 mph 20.9 mph 43 % 0.0 in
16:12 30.0 °F 16.4 °F 1011.4 in SSW 9.7 mph 20.9 mph 44 % 0.0 in
16:17 29.9 °F 16.0 °F 1011.4 in SSW 4.8 mph 20.9 mph 43 % 0.0 in
16:22 29.8 °F 16.2 °F 1011.4 in SW 6.4 mph 20.9 mph 44 % 0.0 in
16:32 29.9 °F 15.6 °F 1011.1 in West 17.7 mph 20.9 mph 42 % 0.0 in
16:42 29.8 °F 15.1 °F 1011.4 in South 8.0 mph 22.5 mph 41 % 0.0 in
16:47 29.6 °F 15.0 °F 1011.4 in WSW 16.1 mph 22.5 mph 41 % 0.0 in
16:52 29.2 °F 15.0 °F 1011.7 in West 19.3 mph 25.7 mph 42 % 0.0 in
17:02 28.5 °F 14.7 °F 1012.1 in WSW 24.1 mph 25.7 mph 43 % 0.0 in
17:12 27.6 °F 15.6 °F 1012.1 in WSW 16.1 mph 25.7 mph 48 % 0.0 in
17:17 27.1 °F 16.1 °F 1012.1 in SW 12.9 mph 25.7 mph 51 % 0.0 in
17:22 26.8 °F 16.1 °F 1012.1 in SW 12.9 mph 22.5 mph 52 % 0.0 in
17:32 26.3 °F 16.5 °F 1011.7 in West 6.4 mph 20.9 mph 55 % 0.0 in
17:37 26.1 °F 16.6 °F 1011.7 in WSW 11.3 mph 20.9 mph 56 % 0.0 in
17:42 26.1 °F 16.6 °F 1011.7 in SW 4.8 mph 17.7 mph 56 % 0.0 in
17:47 26.1 °F 16.6 °F 1011.7 in WSW 12.9 mph 17.7 mph 56 % 0.0 in
17:52 26.0 °F 16.8 °F 1011.7 in WSW 12.9 mph 16.1 mph 57 % 0.0 in
17:57 26.0 °F 16.8 °F 1011.7 in SW 14.5 mph 17.7 mph 57 % 0.0 in
18:02 26.1 °F 17.2 °F 1011.7 in West 8.0 mph 17.7 mph 58 % 0.0 in
18:07 26.1 °F 16.9 °F 1011.4 in West 6.4 mph 20.9 mph 57 % 0.0 in
18:12 26.1 °F 17.2 °F 1011.4 in West 3.2 mph 19.3 mph 58 % 0.0 in
18:17 26.2 °F 16.7 °F 1011.4 in WSW 8.0 mph 19.3 mph 56 % 0.0 in
18:22 26.1 °F 16.9 °F 1011.4 in SW 14.5 mph 19.3 mph 57 % 0.0 in
18:27 26.1 °F 16.9 °F 1011.4 in SW 14.5 mph 19.3 mph 57 % 0.0 in
18:32 25.8 °F 16.9 °F 1011.7 in South 8.0 mph 27.4 mph 58 % 0.0 in
18:42 25.1 °F 17.0 °F 1011.7 in SSW 6.4 mph 29.0 mph 61 % 0.0 in
18:52 24.2 °F 17.9 °F 1011.7 in WSW 14.5 mph 24.1 mph 68 % 0.3 in
18:57 23.7 °F 17.9 °F 1011.7 in West 8.0 mph 24.1 mph 70 % 0.3 in
19:02 23.5 °F 18.2 °F 1011.7 in WSW 3.2 mph 24.1 mph 72 % 0.3 in
19:07 23.3 °F 18.2 °F 1011.7 in SW 4.8 mph 17.7 mph 73 % 0.3 in
19:12 23.3 °F 18.2 °F 1011.7 in WSW 4.8 mph 16.1 mph 73 % 0.3 in
19:17 23.3 °F 18.2 °F 1011.7 in SW 8.0 mph 16.1 mph 73 % 0.3 in
19:22 23.2 °F 18.1 °F 1011.7 in SW 4.8 mph 16.1 mph 73 % 0.3 in
19:27 23.3 °F 18.0 °F 1011.4 in West 11.3 mph 17.7 mph 72 % 0.3 in
19:32 23.4 °F 18.3 °F 1011.4 in SW 11.3 mph 17.7 mph 73 % 0.3 in
19:42 23.5 °F 18.4 °F 1011.7 in WSW 4.8 mph 16.1 mph 73 % 0.3 in
19:47 23.6 °F 18.5 °F 1011.7 in SW 11.3 mph 11.3 mph 73 % 0.0 in
19:57 23.6 °F 18.5 °F 1011.7 in SW 8.0 mph 16.1 mph 73 % 0.0 in
20:02 23.6 °F 18.7 °F 1011.7 in SW 8.0 mph 16.1 mph 74 % 0.0 in
20:07 23.6 °F 18.7 °F 1011.7 in SW 6.4 mph 16.1 mph 74 % 0.0 in
20:12 23.6 °F 18.7 °F 1011.7 in SSW 4.8 mph 16.1 mph 74 % 0.0 in
20:17 23.7 °F 18.8 °F 1012.1 in SW 11.3 mph 17.7 mph 74 % 0.0 in
20:22 23.7 °F 18.6 °F 1011.7 in West 4.8 mph 17.7 mph 73 % 0.0 in
20:32 23.7 °F 18.8 °F 1012.1 in SW 4.8 mph 17.7 mph 74 % 0.0 in
20:37 23.6 °F 18.9 °F 1012.1 in WSW 6.4 mph 12.9 mph 75 % 0.0 in
20:42 23.6 °F 18.9 °F 1012.4 in WSW 4.8 mph 12.9 mph 75 % 0.0 in
20:47 23.5 °F 19.0 °F 1012.4 in SW 8.0 mph 12.9 mph 76 % 0.0 in
20:52 23.5 °F 19.0 °F 1012.4 in SSW 8.0 mph 12.9 mph 76 % 0.0 in
20:57 23.5 °F 19.0 °F 1012.4 in WSW 4.8 mph 12.9 mph 76 % 0.0 in
21:02 23.4 °F 18.9 °F 1012.8 in SW 4.8 mph 12.9 mph 76 % 0.0 in
21:07 23.4 °F 19.1 °F 1012.8 in SW 4.8 mph 12.9 mph 77 % 0.0 in
21:12 23.3 °F 19.2 °F 1012.8 in SW 1.6 mph 12.9 mph 78 % 0.0 in
21:17 23.2 °F 19.1 °F 1012.8 in WSW 4.8 mph 14.5 mph 78 % 0.0 in
21:22 22.9 °F 19.1 °F 1012.8 in SW 3.2 mph 14.5 mph 79 % 0.0 in
21:27 22.7 °F 19.1 °F 1012.4 in WSW 4.8 mph 14.5 mph 80 % 0.0 in
21:32 22.6 °F 19.0 °F 1012.4 in West 1.6 mph 14.5 mph 80 % 0.0 in
21:42 22.2 °F 18.8 °F 1012.4 in WNW 4.8 mph 9.7 mph 81 % 0.0 in
21:47 22.1 °F 18.7 °F 1012.4 in WNW 8.0 mph 11.3 mph 81 % 0.0 in
21:52 22.1 °F 18.7 °F 1012.4 in West 1.6 mph 11.3 mph 81 % 0.0 in
21:57 21.9 °F 18.7 °F 1012.4 in WNW 3.2 mph 11.3 mph 82 % 0.0 in
22:02 21.8 °F 18.6 °F 1012.4 in WSW 3.2 mph 11.3 mph 82 % 0.0 in
22:12 21.7 °F 18.7 °F 1012.4 in WSW 1.6 mph 6.4 mph 83 % 0.0 in
22:17 21.6 °F 18.6 °F 1012.8 in Calm   6.4 mph 83 % 0.0 in
22:22 21.5 °F 18.7 °F 1012.8 in WSW 1.6 mph 6.4 mph 84 % 0.0 in
22:32 21.5 °F 18.7 °F 1012.8 in Calm   4.8 mph 84 % 0.0 in
22:42 21.3 °F 18.5 °F 1012.8 in SSW 3.2 mph 6.4 mph 84 % 0.0 in
22:52 21.0 °F 18.6 °F 1012.8 in SW 3.2 mph 6.4 mph 86 % 0.0 in
22:57 21.0 °F 18.6 °F 1012.8 in WSW 1.6 mph 6.4 mph 86 % 0.0 in
23:02 21.2 °F 18.8 °F 1012.8 in WSW 3.2 mph 6.4 mph 86 % 0.0 in
23:07 21.4 °F 18.8 °F 1012.8 in WSW 6.4 mph 8.0 mph 85 % 0.0 in
23:12 21.4 °F 18.8 °F 1013.1 in WSW 8.0 mph 9.7 mph 85 % 0.0 in
23:17 21.4 °F 18.8 °F 1012.8 in West 8.0 mph 9.7 mph 85 % 0.0 in
23:22 21.4 °F 18.8 °F 1013.1 in SW 6.4 mph 11.3 mph 85 % 0.0 in
23:32 21.3 °F 18.7 °F 1013.1 in West 3.2 mph 11.3 mph 85 % 0.0 in
23:42 20.9 °F 18.5 °F 1013.1 in SSW 6.4 mph 9.7 mph 86 % 0.0 in
23:47 20.8 °F 18.6 °F 1013.1 in WSW 3.2 mph 8.0 mph 87 % 0.0 in
23:52 20.8 °F 18.6 °F 1013.4 in SSE 3.2 mph 11.3 mph 87 % 0.0 in
23:57 20.7 °F 18.5 °F 1013.4 in SW 3.2 mph 11.3 mph 87 % 0.0 in
Meteo18
Compliments of Weather Underground - 4 mb

Script developed by  Jim McMurry - jmcmurry@mwt.net Adapted for the template by  Wim van der Kuil - Leuven-Template.eu

You find our weather info also at:

European Weather Network

Weather Underground

Equipment we use:

Weather-station
Davis Vue

Weather-program
Meteobridge

Weather-server
Raspberry PI 2 B+

Provider
1 and 1

Davis Vue

Meteobridge

Raspberry PI 2 B+

1 and 1